createdAt,value
2023-04-23T00:01:09.075Z,2.28
2023-04-23T00:03:39.243Z,4.63
2023-04-23T00:06:11.105Z,2.95
2023-04-23T00:08:42.010Z,4.20
2023-04-23T00:11:10.088Z,4.95
2023-04-23T00:13:37.692Z,3.03
2023-04-23T00:16:04.986Z,4.50
2023-04-23T00:18:31.869Z,3.20
2023-04-23T00:20:59.367Z,3.92
2023-04-23T00:23:26.309Z,2.53
2023-04-23T00:25:52.958Z,3.70
2023-04-23T00:28:21.942Z,2.03
2023-04-23T00:30:49.005Z,2.95
2023-04-23T00:33:15.918Z,2.97
2023-04-23T00:35:42.707Z,6.15
2023-04-23T00:38:09.815Z,7.05
2023-04-23T00:40:36.906Z,3.75
2023-04-23T00:43:04.509Z,7.25
2023-04-23T00:45:31.525Z,3.63
2023-04-23T00:47:59.109Z,2.75
2023-04-23T00:50:26.221Z,4.80
2023-04-23T00:52:52.958Z,2.58
2023-04-23T00:55:21.170Z,3.80
2023-04-23T00:57:48.766Z,3.63
2023-04-23T01:00:15.737Z,3.58
2023-04-23T01:02:43.808Z,3.38
2023-04-23T01:05:12.016Z,5.10
2023-04-23T01:07:39.048Z,6.75
2023-04-23T01:10:06.536Z,2.75
2023-04-23T01:12:34.984Z,5.88
2023-04-23T01:15:02.610Z,3.45
2023-04-23T01:17:29.519Z,3.83
2023-04-23T01:19:58.099Z,5.53
2023-04-23T01:22:25.049Z,2.97
2023-04-23T01:24:52.478Z,6.65
2023-04-23T01:27:20.303Z,3.67
2023-04-23T01:29:48.126Z,3.92
2023-04-23T01:32:15.801Z,4.03
2023-04-23T01:34:43.612Z,4.85
2023-04-23T01:37:11.445Z,4.03
2023-04-23T01:39:38.113Z,3.85
2023-04-23T01:42:07.156Z,4.10
2023-04-23T01:44:33.994Z,6.35
2023-04-23T01:47:00.957Z,3.17
2023-04-23T01:49:27.902Z,5.50
2023-04-23T01:51:54.620Z,4.32
2023-04-23T01:54:21.335Z,5.40
2023-04-23T01:56:50.173Z,4.43
2023-04-23T01:59:16.861Z,3.15
2023-04-23T02:01:45.502Z,6.20
2023-04-23T02:04:14.080Z,2.67
2023-04-23T02:06:42.830Z,3.92
2023-04-23T02:09:09.534Z,2.70
2023-04-23T02:11:36.268Z,3.08
2023-04-23T02:14:04.538Z,3.50
2023-04-23T02:16:31.800Z,5.07
2023-04-23T02:18:59.078Z,2.85
2023-04-23T02:21:27.858Z,2.13
2023-04-23T02:23:54.525Z,4.63
2023-04-23T02:26:22.924Z,3.47
2023-04-23T02:28:49.596Z,3.97
2023-04-23T02:31:17.854Z,3.10
2023-04-23T02:33:44.614Z,2.67
2023-04-23T02:36:12.632Z,3.20
2023-04-23T02:38:42.434Z,3.70
2023-04-23T02:41:09.338Z,3.85
2023-04-23T02:43:36.183Z,6.10
2023-04-23T02:46:08.606Z,4.30
2023-04-23T02:48:41.724Z,5.75
2023-04-23T02:51:10.841Z,3.45
2023-04-23T02:53:37.615Z,2.85
2023-04-23T02:56:04.673Z,5.32
2023-04-23T02:58:32.038Z,3.45
2023-04-23T03:01:01.717Z,4.38
2023-04-23T03:03:31.891Z,3.78
2023-04-23T03:06:01.312Z,5.30
2023-04-23T03:08:28.531Z,5.43
2023-04-23T03:10:55.582Z,5.10
2023-04-23T03:13:22.996Z,4.60
2023-04-23T03:15:50.871Z,3.95
2023-04-23T03:18:18.210Z,3.60
2023-04-23T03:20:48.087Z,4.15
2023-04-23T03:23:15.422Z,4.47
2023-04-23T03:25:42.264Z,2.75
2023-04-23T03:28:08.916Z,4.38
2023-04-23T03:30:35.765Z,3.97
2023-04-23T03:33:02.750Z,6.78
2023-04-23T03:35:29.786Z,4.97
2023-04-23T03:37:59.052Z,3.33
2023-04-23T03:40:25.974Z,3.33
2023-04-23T03:42:58.036Z,4.13
2023-04-23T03:45:38.726Z,3.90
2023-04-23T03:48:05.648Z,5.18
2023-04-23T03:50:34.535Z,4.70
2023-04-23T03:53:11.313Z,7.15
2023-04-23T03:58:35.421Z,3.47
2023-04-23T04:01:02.117Z,4.22
2023-04-23T04:03:29.149Z,5.00
2023-04-23T04:06:21.085Z,5.75
2023-04-23T04:08:47.774Z,4.23
2023-04-23T04:11:14.551Z,4.72
2023-04-23T04:13:41.583Z,5.55
2023-04-23T04:16:08.554Z,8.00
2023-04-23T04:18:35.175Z,6.95
2023-04-23T04:21:01.837Z,6.63
2023-04-23T04:23:29.490Z,7.00
2023-04-23T04:25:57.747Z,6.15
2023-04-23T04:28:25.303Z,5.50
2023-04-23T04:30:57.548Z,5.70
2023-04-23T04:33:25.865Z,5.40
2023-04-23T04:35:52.968Z,5.32
2023-04-23T04:38:20.063Z,7.15
2023-04-23T04:40:46.752Z,3.70
2023-04-23T04:43:13.351Z,3.97
2023-04-23T04:45:40.031Z,7.25
2023-04-23T04:48:06.674Z,7.30
2023-04-23T04:50:33.368Z,4.78
2023-04-23T04:53:00.207Z,5.00
2023-04-23T04:55:27.312Z,5.38
2023-04-23T04:57:54.072Z,4.32
2023-04-23T05:00:29.609Z,6.22
2023-04-23T05:02:57.911Z,4.55
2023-04-23T05:05:26.028Z,4.30
2023-04-23T05:07:54.397Z,4.80
2023-04-23T05:10:21.810Z,4.25
2023-04-23T05:12:48.599Z,7.20
2023-04-23T05:15:15.282Z,4.43
2023-04-23T05:17:42.688Z,6.18
2023-04-23T05:20:10.974Z,7.93
2023-04-23T05:22:41.945Z,7.80
2023-04-23T05:25:10.615Z,8.85
2023-04-23T05:27:37.412Z,8.77
2023-04-23T05:30:06.593Z,5.30
2023-04-23T05:32:33.256Z,5.13
2023-04-23T05:35:02.748Z,5.57
2023-04-23T05:37:30.253Z,5.30
2023-04-23T05:39:58.269Z,5.93
2023-04-23T05:42:25.015Z,4.28
2023-04-23T05:44:51.849Z,3.97
2023-04-23T05:47:18.497Z,6.07
2023-04-23T05:49:45.124Z,11.07
2023-04-23T05:52:12.158Z,17.58
2023-04-23T05:54:39.386Z,11.02
2023-04-23T05:57:06.481Z,7.15
2023-04-23T05:59:34.053Z,6.35
2023-04-23T06:02:00.974Z,4.22
2023-04-23T06:04:27.857Z,9.13
2023-04-23T06:06:54.864Z,5.22
2023-04-23T06:09:21.468Z,5.93
2023-04-23T06:11:50.612Z,5.28
2023-04-23T06:14:17.325Z,5.75
2023-04-23T06:16:44.057Z,3.30
2023-04-23T06:19:11.525Z,4.78
2023-04-23T06:21:38.442Z,4.45
2023-04-23T06:24:07.430Z,4.00
2023-04-23T06:26:34.281Z,6.50
2023-04-23T06:29:08.721Z,3.15
2023-04-23T06:31:39.773Z,4.45
2023-04-23T06:34:06.425Z,4.60
2023-04-23T06:36:33.250Z,5.47
2023-04-23T06:38:59.865Z,4.85
2023-04-23T06:41:26.622Z,5.10
2023-04-23T06:44:07.452Z,3.75
2023-04-23T06:46:40.939Z,3.30
2023-04-23T06:49:07.556Z,4.43
2023-04-23T06:51:35.027Z,6.13
2023-04-23T06:54:01.698Z,4.35
2023-04-23T06:56:28.381Z,3.60
2023-04-23T06:58:55.012Z,6.60
2023-04-23T07:01:22.366Z,4.20
2023-04-23T07:03:51.542Z,5.72
2023-04-23T07:06:18.368Z,4.18
2023-04-23T07:08:45.340Z,3.35
2023-04-23T07:11:12.251Z,4.30
2023-04-23T07:13:39.772Z,4.20
2023-04-23T07:16:06.938Z,4.25
2023-04-23T07:18:33.658Z,4.50
2023-04-23T07:21:00.437Z,4.82
2023-04-23T07:23:27.075Z,3.03
2023-04-23T07:25:53.749Z,4.30
2023-04-23T07:28:20.519Z,4.90
2023-04-23T07:30:48.296Z,5.47
2023-04-23T07:33:15.000Z,3.97
2023-04-23T07:35:41.692Z,3.30
2023-04-23T07:38:08.814Z,3.88
2023-04-23T07:40:37.088Z,4.70
2023-04-23T07:43:03.943Z,4.47
2023-04-23T07:45:30.860Z,3.67
2023-04-23T07:47:57.721Z,3.70
2023-04-23T07:50:24.550Z,4.28
2023-04-23T07:52:51.889Z,3.88
2023-04-23T07:55:20.405Z,3.88
2023-04-23T07:57:47.045Z,3.10
2023-04-23T08:00:14.493Z,4.05
2023-04-23T08:02:41.377Z,5.05
2023-04-23T08:05:08.998Z,3.63
2023-04-23T08:07:35.767Z,6.28
2023-04-23T08:10:04.200Z,3.72
2023-04-23T08:12:31.213Z,2.70
2023-04-23T08:14:58.253Z,3.13
2023-04-23T08:17:31.429Z,2.83
2023-04-23T08:19:58.275Z,5.28
2023-04-23T08:22:25.030Z,2.75
2023-04-23T08:24:51.707Z,2.33
2023-04-23T08:27:18.355Z,2.67
2023-04-23T08:29:45.042Z,3.40
2023-04-23T08:32:11.923Z,3.65
2023-04-23T08:34:38.671Z,1.77
2023-04-23T08:37:05.363Z,4.07
2023-04-23T08:39:34.313Z,2.17
2023-04-23T08:42:19.255Z,3.20
2023-04-23T08:44:47.225Z,1.73
2023-04-23T08:47:18.232Z,1.00
2023-04-23T08:49:46.546Z,1.67
2023-04-23T08:52:19.304Z,1.38
2023-04-23T08:54:49.458Z,1.38
2023-04-23T08:57:17.752Z,2.58
2023-04-23T08:59:46.559Z,2.28
2023-04-23T09:02:16.013Z,3.38
2023-04-23T09:04:42.798Z,2.05
2023-04-23T09:07:11.558Z,1.55
2023-04-23T09:09:40.448Z,2.75
2023-04-23T09:12:08.987Z,1.60
2023-04-23T09:14:36.323Z,2.65
2023-04-23T09:17:03.986Z,1.77
2023-04-23T09:19:31.247Z,0.98
2023-04-23T09:21:59.032Z,2.63
2023-04-23T09:24:26.180Z,1.75
2023-04-23T09:26:53.119Z,1.85
2023-04-23T09:29:23.390Z,3.22
2023-04-23T09:31:56.470Z,4.10
2023-04-23T09:34:24.869Z,3.60
2023-04-23T09:36:52.961Z,4.25
2023-04-23T09:39:22.528Z,3.00
2023-04-23T09:41:52.297Z,3.92
2023-04-23T09:44:22.532Z,2.38
2023-04-23T09:46:49.755Z,2.03
2023-04-23T09:49:17.759Z,3.05
2023-04-23T09:51:47.497Z,2.75
2023-04-23T09:54:22.722Z,1.35
2023-04-23T09:56:57.124Z,2.22
2023-04-23T09:59:45.993Z,2.13
2023-04-23T10:02:14.298Z,2.05
2023-04-23T10:04:41.998Z,1.83
2023-04-23T10:09:43.496Z,1.27
2023-04-23T10:12:24.302Z,1.20
2023-04-23T10:14:59.762Z,2.40
2023-04-23T10:17:27.030Z,3.05
2023-04-23T10:19:55.667Z,3.10
2023-04-23T10:22:23.106Z,1.60
2023-04-23T10:24:57.244Z,3.05
2023-04-23T10:27:36.740Z,2.28
2023-04-23T10:30:14.956Z,1.55
2023-04-23T10:32:42.261Z,2.67
2023-04-23T10:35:09.859Z,3.58
2023-04-23T10:37:38.249Z,2.70
2023-04-23T10:40:14.798Z,3.47
2023-04-23T10:42:43.793Z,3.15
2023-04-23T10:45:23.179Z,1.70
2023-04-23T10:47:52.803Z,1.15
2023-04-23T10:50:30.801Z,2.35
2023-04-23T10:52:58.507Z,2.22
2023-04-23T10:55:30.552Z,2.50
2023-04-23T10:58:05.380Z,1.55
2023-04-23T11:00:51.608Z,1.35
2023-04-23T11:03:32.925Z,1.15
2023-04-23T11:06:04.449Z,1.77
2023-04-23T11:08:34.594Z,1.65
2023-04-23T11:11:06.705Z,1.17
2023-04-23T11:13:33.489Z,1.88
2023-04-23T11:16:22.831Z,1.85
2023-04-23T11:19:12.243Z,1.90
2023-04-23T11:22:01.659Z,1.95
2023-04-23T11:24:42.798Z,1.02
2023-04-23T11:27:12.945Z,1.90
2023-04-23T11:29:41.234Z,2.08
2023-04-23T11:32:13.067Z,1.25
2023-04-23T11:34:41.640Z,1.83
2023-04-23T11:37:13.944Z,1.05
2023-04-23T11:39:42.078Z,1.58
2023-04-23T11:42:20.231Z,1.42
2023-04-23T11:44:47.904Z,2.40
2023-04-23T11:47:18.958Z,1.75
2023-04-23T11:49:46.123Z,2.03
2023-04-23T11:52:14.449Z,2.53
2023-04-23T11:54:42.159Z,1.98
2023-04-23T11:57:10.093Z,1.98
2023-04-23T11:59:36.896Z,1.55
2023-04-23T12:02:03.560Z,1.20
2023-04-23T12:04:31.874Z,2.88
2023-04-23T12:06:59.354Z,1.20
2023-04-23T12:09:27.853Z,1.55
2023-04-23T12:11:56.812Z,1.63
2023-04-23T12:14:29.354Z,2.20
2023-04-23T12:16:57.122Z,1.50
2023-04-23T12:19:29.652Z,1.98
2023-04-23T12:21:58.562Z,1.25
2023-04-23T12:24:28.079Z,2.45
2023-04-23T12:26:58.481Z,1.25
2023-04-23T12:29:25.509Z,1.20
2023-04-23T12:31:54.054Z,1.63
2023-04-23T12:34:21.536Z,1.60
2023-04-23T12:36:50.614Z,1.67
2023-04-23T12:39:24.225Z,1.30
2023-04-23T12:41:58.381Z,1.92
2023-04-23T12:44:25.054Z,1.08
2023-04-23T12:46:57.858Z,2.40
2023-04-23T12:49:27.275Z,1.17
2023-04-23T12:52:01.179Z,1.73
2023-04-23T12:54:31.173Z,2.50
2023-04-23T12:57:04.197Z,1.65
2023-04-23T12:59:31.558Z,2.28
2023-04-23T13:02:03.066Z,2.13
2023-04-23T13:04:31.553Z,1.20
2023-04-23T13:06:58.234Z,1.42
2023-04-23T13:09:28.188Z,3.03
2023-04-23T13:11:55.654Z,2.15
2023-04-23T13:14:22.391Z,1.40
2023-04-23T13:16:49.353Z,1.65
2023-04-23T13:19:17.489Z,1.65
2023-04-23T13:21:44.844Z,1.30
2023-04-23T13:24:11.466Z,4.05
2023-04-23T13:26:38.191Z,2.05
2023-04-23T13:29:05.015Z,1.98
2023-04-23T13:31:32.028Z,1.17
2023-04-23T13:33:58.867Z,2.95
2023-04-23T13:36:25.931Z,2.30
2023-04-23T13:38:52.892Z,1.60
2023-04-23T13:41:19.642Z,2.47
2023-04-23T13:43:46.315Z,2.88
2023-04-23T13:46:14.396Z,1.65
2023-04-23T13:48:41.569Z,2.92
2023-04-23T13:51:20.725Z,2.40
2023-04-23T13:53:53.975Z,2.85
2023-04-23T13:56:20.662Z,1.55
2023-04-23T13:58:48.901Z,1.63
2023-04-23T14:01:16.281Z,2.78
2023-04-23T14:03:43.065Z,3.53
2023-04-23T14:06:09.746Z,2.88
2023-04-23T14:08:36.923Z,2.20
2023-04-23T14:11:04.523Z,2.55
2023-04-23T14:13:32.046Z,1.90
2023-04-23T14:16:00.136Z,2.75
2023-04-23T14:18:28.807Z,1.52
2023-04-23T14:20:55.542Z,1.85
2023-04-23T14:23:22.103Z,2.15
2023-04-23T14:25:53.890Z,1.45
2023-04-23T14:28:35.155Z,1.23
2023-04-23T14:31:02.704Z,2.63
2023-04-23T14:33:29.353Z,2.80
2023-04-23T14:35:56.328Z,2.25
2023-04-23T14:38:23.189Z,4.80
2023-04-23T14:40:49.828Z,2.03
2023-04-23T14:43:16.695Z,4.25
2023-04-23T14:45:43.613Z,1.48
2023-04-23T14:48:10.661Z,1.98
2023-04-23T14:50:37.410Z,1.25
2023-04-23T14:53:09.967Z,2.08
2023-04-23T14:55:36.801Z,0.88
2023-04-23T14:58:03.439Z,1.33
2023-04-23T15:00:30.254Z,1.67
2023-04-23T15:02:57.156Z,1.20
2023-04-23T15:05:24.277Z,1.20
2023-04-23T15:07:51.894Z,1.80
2023-04-23T15:10:20.384Z,0.90
2023-04-23T15:13:01.524Z,2.35
2023-04-23T15:16:02.873Z,1.70
2023-04-23T15:18:29.738Z,1.38
2023-04-23T15:20:56.379Z,1.23
2023-04-23T15:23:24.212Z,2.28
2023-04-23T15:25:52.413Z,1.75
2023-04-23T15:28:19.149Z,0.45
2023-04-23T15:30:47.613Z,1.80
2023-04-23T15:33:14.232Z,1.00
2023-04-23T15:35:40.886Z,1.42
2023-04-23T15:38:07.519Z,1.50
2023-04-23T15:40:42.090Z,1.08
2023-04-23T15:43:13.569Z,2.20
2023-04-23T15:45:40.345Z,4.20
2023-04-23T15:48:06.975Z,2.03
2023-04-23T15:50:34.261Z,2.55
2023-04-23T15:53:01.603Z,1.15
2023-04-23T15:55:29.345Z,1.25
2023-04-23T15:57:56.080Z,1.55
2023-04-23T16:00:22.871Z,1.67
2023-04-23T16:02:49.617Z,2.30
2023-04-23T16:05:16.542Z,1.60
2023-04-23T16:07:44.392Z,1.83
2023-04-23T16:10:11.316Z,1.02
2023-04-23T16:12:38.377Z,2.17
2023-04-23T16:15:05.929Z,3.38
2023-04-23T16:17:32.649Z,1.65
2023-04-23T16:19:59.466Z,1.92
2023-04-23T16:22:26.432Z,2.80
2023-04-23T16:24:53.053Z,2.75
2023-04-23T16:27:19.698Z,2.70
2023-04-23T16:29:46.324Z,2.25
2023-04-23T16:32:12.996Z,5.25
2023-04-23T16:34:39.826Z,2.80
2023-04-23T16:37:06.758Z,3.08
2023-04-23T16:39:33.450Z,2.17
2023-04-23T16:42:00.159Z,3.33
2023-04-23T16:44:26.827Z,1.58
2023-04-23T16:46:53.677Z,5.35
2023-04-23T16:49:21.936Z,9.02
2023-04-23T16:51:49.061Z,4.15
2023-04-23T16:54:15.698Z,2.90
2023-04-23T16:56:45.345Z,5.00
2023-04-23T16:59:12.605Z,2.28
2023-04-23T17:01:39.313Z,2.75
2023-04-23T17:04:06.239Z,1.77
2023-04-23T17:06:33.195Z,2.10
2023-04-23T17:09:01.440Z,2.45
2023-04-23T17:11:30.370Z,3.47
2023-04-23T17:13:58.006Z,1.70
2023-04-23T17:16:28.220Z,1.67
2023-04-23T17:18:55.842Z,3.45
2023-04-23T17:21:23.150Z,11.90
2023-04-23T17:23:50.090Z,3.95
2023-04-23T17:26:16.774Z,1.00
2023-04-23T17:28:43.481Z,2.05
2023-04-23T17:31:10.346Z,5.00
2023-04-23T17:33:37.079Z,2.97
2023-04-23T17:36:04.536Z,1.70
2023-04-23T17:38:31.228Z,2.88
2023-04-23T17:40:58.734Z,2.67
2023-04-23T17:43:25.992Z,2.80
2023-04-23T17:45:52.828Z,2.65
2023-04-23T17:48:22.203Z,4.15
2023-04-23T17:50:49.629Z,5.00
2023-04-23T17:53:16.382Z,3.38
2023-04-23T17:55:43.004Z,2.60
2023-04-23T17:58:09.680Z,2.35
2023-04-23T18:00:37.536Z,4.38
2023-04-23T18:03:05.116Z,3.67
2023-04-23T18:05:32.153Z,4.38
2023-04-23T18:07:58.795Z,3.92
2023-04-23T18:10:25.693Z,1.58
2023-04-23T18:12:52.684Z,2.85
2023-04-23T18:15:19.428Z,3.95
2023-04-23T18:17:47.478Z,3.60
2023-04-23T18:20:16.225Z,4.25
2023-04-23T18:22:44.390Z,3.40
2023-04-23T18:25:11.613Z,4.20
2023-04-23T18:27:39.048Z,2.95
2023-04-23T18:30:08.216Z,6.05
2023-04-23T18:32:40.057Z,2.67
2023-04-23T18:35:08.456Z,3.88
2023-04-23T18:37:49.410Z,3.25
2023-04-23T18:40:16.442Z,3.83
2023-04-23T18:42:43.301Z,3.22
2023-04-23T18:45:10.850Z,5.32
2023-04-23T18:47:46.142Z,5.88
2023-04-23T18:50:43.727Z,6.00
2023-04-23T18:53:10.497Z,5.78
2023-04-23T18:55:37.260Z,4.10
2023-04-23T18:58:04.238Z,4.28
2023-04-23T19:00:31.534Z,9.68
2023-04-23T19:02:58.492Z,19.25
2023-04-23T19:05:25.845Z,4.75
2023-04-23T19:07:52.700Z,9.18
2023-04-23T19:10:19.551Z,6.68
2023-04-23T19:12:46.398Z,4.97
2023-04-23T19:15:15.089Z,7.57
2023-04-23T19:17:42.139Z,7.00
2023-04-23T19:20:11.229Z,8.77
2023-04-23T19:22:41.211Z,7.00
2023-04-23T19:25:09.312Z,4.30
2023-04-23T19:27:36.349Z,3.20
2023-04-23T19:30:05.830Z,3.58
2023-04-23T19:32:36.437Z,3.33
2023-04-23T19:35:04.833Z,2.83
2023-04-23T19:37:32.366Z,3.65
2023-04-23T19:39:59.584Z,3.13
2023-04-23T19:42:26.387Z,3.22
2023-04-23T19:44:53.174Z,2.47
2023-04-23T19:47:19.982Z,2.72
2023-04-23T19:49:47.063Z,4.75
2023-04-23T19:52:19.681Z,37.63
2023-04-23T19:54:49.206Z,55.55
2023-04-23T19:57:18.437Z,30.33
2023-04-23T19:59:48.026Z,18.83
2023-04-23T20:02:16.879Z,10.50
2023-04-23T20:04:44.128Z,5.15
2023-04-23T20:07:11.151Z,6.22
2023-04-23T20:09:38.327Z,5.13
2023-04-23T20:12:05.197Z,7.93
2023-04-23T20:14:31.971Z,5.18
2023-04-23T20:16:59.112Z,6.90
2023-04-23T20:19:26.164Z,4.88
2023-04-23T20:21:53.377Z,3.13
2023-04-23T20:24:22.953Z,5.07
2023-04-23T20:26:49.836Z,5.40
2023-04-23T20:29:16.616Z,4.05
2023-04-23T20:31:43.776Z,2.97
2023-04-23T20:34:11.104Z,1.83
2023-04-23T20:36:39.035Z,2.72
2023-04-23T20:39:05.759Z,2.55
2023-04-23T20:41:36.661Z,2.10
2023-04-23T20:44:09.054Z,3.45
2023-04-23T20:46:36.987Z,2.53
2023-04-23T20:49:04.379Z,3.50
2023-04-23T20:51:34.639Z,3.00
2023-04-23T20:54:02.266Z,1.17
2023-04-23T20:56:30.109Z,1.33
2023-04-23T20:59:00.110Z,2.13
2023-04-23T21:01:27.336Z,2.65
2023-04-23T21:03:54.564Z,2.28
2023-04-23T21:06:21.799Z,1.52
2023-04-23T21:08:48.899Z,1.45
2023-04-23T21:11:18.245Z,1.35
2023-04-23T21:13:48.356Z,1.42
2023-04-23T21:16:15.456Z,1.23
2023-04-23T21:18:43.852Z,1.77
2023-04-23T21:21:10.729Z,2.60
2023-04-23T21:23:37.414Z,4.07
2023-04-23T21:26:04.377Z,5.50
2023-04-23T21:28:32.127Z,3.72
2023-04-23T21:31:09.909Z,1.80
2023-04-23T21:33:36.755Z,3.20
2023-04-23T21:36:04.343Z,2.25
2023-04-23T21:38:31.044Z,2.70
2023-04-23T21:40:57.769Z,1.90
2023-04-23T21:43:24.493Z,0.90
2023-04-23T21:45:51.487Z,1.05
2023-04-23T21:48:18.330Z,0.77
2023-04-23T21:50:45.045Z,1.65
2023-04-23T21:53:13.132Z,1.45
2023-04-23T21:55:39.809Z,0.85
2023-04-23T21:58:17.161Z,1.25
2023-04-23T22:00:45.339Z,1.00
2023-04-23T22:03:12.453Z,0.93
2023-04-23T22:05:42.185Z,1.10
2023-04-23T22:08:09.648Z,1.02
2023-04-23T22:10:42.834Z,1.10
2023-04-23T22:13:11.290Z,2.00
2023-04-23T22:15:38.437Z,1.58
2023-04-23T22:18:05.467Z,0.95
2023-04-23T22:20:32.285Z,1.40
2023-04-23T22:22:58.999Z,1.65
2023-04-23T22:25:26.018Z,2.58
2023-04-23T22:27:52.678Z,4.05
2023-04-23T22:30:19.372Z,3.20
2023-04-23T22:32:46.223Z,2.33
2023-04-23T22:35:13.054Z,2.03
2023-04-23T22:37:39.810Z,2.13
2023-04-23T22:40:08.244Z,1.88
2023-04-23T22:42:35.793Z,1.63
2023-04-23T22:45:02.409Z,1.27
2023-04-23T22:47:29.144Z,2.60
2023-04-23T22:49:55.896Z,5.30
2023-04-23T22:52:22.792Z,5.95
2023-04-23T22:54:49.490Z,6.47
2023-04-23T22:57:16.139Z,7.03
2023-04-23T22:59:43.352Z,5.13
2023-04-23T23:02:10.670Z,3.83
2023-04-23T23:04:38.971Z,3.30
2023-04-23T23:07:06.518Z,3.78
2023-04-23T23:09:33.475Z,3.50
2023-04-23T23:12:02.786Z,1.40
2023-04-23T23:14:30.004Z,1.27
2023-04-23T23:16:57.585Z,1.98
2023-04-23T23:19:27.140Z,2.40
2023-04-23T23:21:54.074Z,1.30
2023-04-23T23:24:22.043Z,2.33
2023-04-23T23:26:49.153Z,1.08
2023-04-23T23:29:16.344Z,0.95
2023-04-23T23:31:43.229Z,1.75
2023-04-23T23:34:10.283Z,1.27
2023-04-23T23:36:36.985Z,0.80
2023-04-23T23:39:04.524Z,1.88
2023-04-23T23:41:31.238Z,1.65
2023-04-23T23:43:57.970Z,4.13
2023-04-23T23:46:25.523Z,4.15
2023-04-23T23:48:52.328Z,4.53
2023-04-23T23:51:19.094Z,1.83
2023-04-23T23:53:45.853Z,0.95
2023-04-23T23:56:12.560Z,2.10
2023-04-23T23:58:39.226Z,2.15
